KMRC/MRC METAR and TAF weather

Enter ICAO airport designator
Station Type Date Time Source
KMRC METAR 2019/06/16 20:35 UTC NOAA

KMRC 162035Z AUTO 23012G20KT 10SM FEW045 31/21 A2991 RMK A01


Station Type Date Time Source
KMRC Decoded METAR 2019/06/16 20:35 UTC NOAA

Columbia / Maury County, TN, United States (KMRC) 35-33N 087-11W
Jun 16, 2019 - 04:35 PM EDT / 2019.06.16 2035 UTC
Wind: from the SW (230 degrees) at 14 MPH (12 KT) gusting to 23 MPH (20 KT):0
Visibility: 10 mile(s):0
Sky conditions: mostly clear
Temperature: 87 F (31 C)
Dew Point: 69 F (21 C)
Relative Humidity: 55%
Pressure (altimeter): 29.91 in. Hg (1012 hPa)
ob: KMRC 162035Z AUTO 23012G20KT 10SM FEW045 31/21 A2991 RMK A01
cycle: 20

Station Type Date Time Source
KMRC TAF 2009/08/31 19:45 UTC NOAA

METAR KMRC 311945Z AUTO 06008KT 10SM CLR 26/12 A3010
RMK AO1 T02550116 $

Example: see airport list